Time;durP1;ratioP1;P1;durP2;ratioP2;P2;SDS_P1;SDS_P2;PMS_P1;PMS_P2;Temp;Humidity;BMP_temperature;BMP_pressure;BME280_temperature;BME280_humidity;BME280_pressure;Samples;Min_cycle;Max_cycle;Signal;HPM_P1;HPM_P2
2022/09/20 00:01:14;;;;;;;1.38;0.50;;;15.40;81.10;;;;;;4919368;28;20061;-89
2022/09/20 00:03:42;;;;;;;0.65;0.50;;;15.30;81.00;;;;;;4958798;28;20045;-88
2022/09/20 00:06:11;;;;;;;0.63;0.40;;;15.30;80.80;;;;;;4946696;28;20050;-89
2022/09/20 00:08:38;;;;;;;0.47;0.40;;;15.30;80.80;;;;;;4948769;28;20035;-90
2022/09/20 00:11:14;;;;;;;0.90;0.40;;;15.30;80.60;;;;;;4959850;28;20079;-84
2022/09/20 00:13:41;;;;;;;0.52;0.40;;;15.30;80.80;;;;;;4960246;28;20039;-88
2022/09/20 00:16:13;;;;;;;0.40;0.40;;;15.40;80.80;;;;;;4958738;28;20101;-90
2022/09/20 00:18:40;;;;;;;0.55;0.40;;;15.30;80.60;;;;;;4955989;28;20059;-87
2022/09/20 00:21:06;;;;;;;0.43;0.32;;;15.40;80.70;;;;;;4958693;28;20035;-84
2022/09/20 00:23:33;;;;;;;0.57;0.47;;;15.40;80.70;;;;;;4960541;28;20462;-89
2022/09/20 00:26:01;;;;;;;1.23;0.40;;;15.30;80.70;;;;;;4959397;28;20043;-90
2022/09/20 00:28:28;;;;;;;0.30;0.30;;;15.30;80.60;;;;;;4956789;28;20542;-89
2022/09/20 00:30:55;;;;;;;0.77;0.40;;;15.30;80.60;;;;;;4963096;28;20031;-91
2022/09/20 00:33:22;;;;;;;0.30;0.30;;;15.30;80.70;;;;;;4961069;28;20027;-86
2022/09/20 00:35:48;;;;;;;0.45;0.30;;;15.30;80.60;;;;;;4967837;28;20035;-82
2022/09/20 00:38:14;;;;;;;0.40;0.40;;;15.30;80.50;;;;;;4969014;28;20114;-90
2022/09/20 00:40:43;;;;;;;0.30;0.30;;;15.30;80.50;;;;;;4973609;28;20039;-90
2022/09/20 00:43:16;;;;;;;0.55;0.50;;;15.30;80.40;;;;;;4975449;28;20321;-87
2022/09/20 00:45:46;;;;;;;1.30;0.38;;;15.30;80.50;;;;;;4988047;28;20557;-91
2022/09/20 00:48:26;;;;;;;0.88;0.40;;;15.30;80.30;;;;;;4955794;28;20035;-89
2022/09/20 00:51:08;;;;;;;1.42;0.52;;;15.40;80.30;;;;;;4945133;28;20035;-90
2022/09/20 00:53:46;;;;;;;0.50;0.50;;;15.40;80.30;;;;;;4962221;28;20414;-92
2022/09/20 00:56:19;;;;;;;0.40;0.40;;;15.40;80.30;;;;;;4961046;28;20163;-87
2022/09/20 00:59:09;;;;;;;0.40;0.30;;;15.40;80.30;;;;;;4961941;28;20043;-84
2022/09/20 01:01:35;;;;;;;1.25;0.70;;;15.40;80.40;;;;;;4961247;28;20054;-91
2022/09/20 01:04:02;;;;;;;0.47;0.47;;;15.40;80.30;;;;;;4961066;28;20035;-91
2022/09/20 01:06:29;;;;;;;0.43;0.43;;;15.40;80.30;;;;;;4960930;28;20066;-89
2022/09/20 01:09:01;;;;;;;0.45;0.40;;;15.40;80.30;;;;;;4960935;28;20031;-90
2022/09/20 01:11:29;;;;;;;0.40;0.40;;;15.40;80.30;;;;;;4977659;28;20482;-89
2022/09/20 01:13:55;;;;;;;0.50;0.50;;;15.40;80.30;;;;;;4962397;28;20039;-89
2022/09/20 01:16:23;;;;;;;0.32;0.32;;;15.40;80.30;;;;;;4943084;28;20031;-89
2022/09/20 01:18:49;;;;;;;0.35;0.35;;;15.40;80.30;;;;;;4959817;28;20031;-88
2022/09/20 01:21:18;;;;;;;0.40;0.40;;;15.40;80.20;;;;;;4959015;28;20547;-89
2022/09/20 01:23:49;;;;;;;0.35;0.35;;;15.40;80.20;;;;;;4960154;28;20039;-85
2022/09/20 01:26:57;;;;;;;0.95;0.30;;;15.40;80.10;;;;;;4964976;28;20035;-90
2022/09/20 01:29:44;;;;;;;0.47;0.30;;;15.40;80.00;;;;;;4961241;28;20137;-89
2022/09/20 01:32:15;;;;;;;0.30;0.22;;;15.40;80.10;;;;;;4964873;28;20426;-90
2022/09/20 01:34:47;;;;;;;0.45;0.30;;;15.40;80.10;;;;;;4960893;28;20039;-87
2022/09/20 01:38:05;;;;;;;1.17;0.50;;;15.40;80.10;;;;;;4960521;28;20565;-87
2022/09/20 01:40:55;;;;;;;0.60;0.60;;;15.30;80.10;;;;;;4919423;29;20130;-88
2022/09/20 01:43:35;;;;;;;1.33;0.40;;;15.40;80.10;;;;;;4921014;29;20032;-89
2022/09/20 01:46:25;;;;;;;1.27;0.40;;;15.40;80.10;;;;;;4913124;29;20032;-88
2022/09/20 01:49:03;;;;;;;0.80;0.30;;;15.30;80.10;;;;;;4934624;29;20688;-79
2022/09/20 01:51:47;;;;;;;0.80;0.50;;;15.30;80.00;;;;;;4924591;29;20079;-88
2022/09/20 01:54:42;;;;;;;0.50;0.40;;;15.30;80.10;;;;;;4928684;29;20036;-88
2022/09/20 01:57:14;;;;;;;2.38;0.50;;;15.40;80.30;;;;;;4924041;29;20040;-87
2022/09/20 01:59:59;;;;;;;0.28;0.28;;;15.30;80.20;;;;;;4923161;29;20039;-88
2022/09/20 02:03:11;;;;;;;0.63;0.40;;;15.30;80.30;;;;;;4907287;29;20043;-82
2022/09/20 02:06:10;;;;;;;0.52;0.35;;;15.30;80.30;;;;;;4872777;29;20378;-84
2022/09/20 02:09:03;;;;;;;0.52;0.38;;;15.40;80.30;;;;;;4872789;29;20045;-91
2022/09/20 02:11:49;;;;;;;0.47;0.40;;;15.30;80.10;;;;;;4872194;29;20144;-90
2022/09/20 02:14:31;;;;;;;1.63;0.60;;;15.40;80.30;;;;;;4873352;29;20062;-90
2022/09/20 02:17:09;;;;;;;0.80;0.63;;;15.30;80.30;;;;;;4872328;29;20664;-90
2022/09/20 02:19:44;;;;;;;0.98;0.30;;;15.30;80.30;;;;;;4870599;29;20040;-87
2022/09/20 02:22:18;;;;;;;0.33;0.30;;;15.30;80.30;;;;;;4872751;29;20033;-89
2022/09/20 02:25:13;;;;;;;0.65;0.43;;;15.30;80.40;;;;;;4873928;29;20057;-91
2022/09/20 02:28:00;;;;;;;0.65;0.30;;;15.30;80.40;;;;;;4841815;29;20048;-89
2022/09/20 02:31:04;;;;;;;0.40;0.40;;;15.30;80.30;;;;;;4871140;29;20048;-87
2022/09/20 02:34:07;;;;;;;0.95;0.38;;;15.30;80.50;;;;;;4838741;29;20433;-89
2022/09/20 02:37:06;;;;;;;0.40;0.40;;;15.30;80.30;;;;;;4851462;29;20512;-87
2022/09/20 02:39:47;;;;;;;0.40;0.40;;;15.30;80.30;;;;;;4875591;29;20070;-86
2022/09/20 02:43:06;;;;;;;0.60;0.57;;;15.30;80.30;;;;;;4927680;29;20028;-89
2022/09/20 02:45:55;;;;;;;0.45;0.40;;;15.30;80.30;;;;;;4891901;29;20068;-90
2022/09/20 02:48:35;;;;;;;0.50;0.40;;;15.30;80.30;;;;;;4835560;29;20426;-88
2022/09/20 02:51:24;;;;;;;0.30;0.30;;;15.30;80.30;;;;;;4817781;29;20603;-89
2022/09/20 02:54:02;;;;;;;0.63;0.40;;;15.30;80.20;;;;;;4820134;29;20450;-90
2022/09/20 02:56:42;;;;;;;0.63;0.47;;;15.30;80.20;;;;;;4837297;29;20034;-87
2022/09/20 02:59:20;;;;;;;0.75;0.57;;;15.30;80.20;;;;;;4836487;29;20053;-90
2022/09/20 03:01:57;;;;;;;0.32;0.32;;;15.40;80.30;;;;;;4836946;29;20612;-91
2022/09/20 03:04:38;;;;;;;1.40;0.50;;;15.40;80.30;;;;;;4804384;29;20034;-84
2022/09/20 03:07:45;;;;;;;0.45;0.40;;;15.30;80.20;;;;;;4839123;29;20053;-79
2022/09/20 03:10:27;;;;;;;0.50;0.50;;;15.30;80.20;;;;;;4830270;29;20223;-81
2022/09/20 03:13:14;;;;;;;0.95;0.70;;;15.30;80.20;;;;;;4821115;29;20480;-84
2022/09/20 03:16:06;;;;;;;1.63;0.90;;;15.30;80.30;;;;;;4826572;29;20155;-82
2022/09/20 03:19:06;;;;;;;0.30;0.30;;;15.30;80.30;;;;;;4860295;29;20311;-82
2022/09/20 03:21:35;;;;;;;0.55;0.55;;;15.30;80.20;;;;;;4840744;29;20041;-82
2022/09/20 03:24:36;;;;;;;0.40;0.35;;;15.30;80.10;;;;;;4826156;29;20041;-83
2022/09/20 03:27:12;;;;;;;1.20;0.50;;;15.30;80.10;;;;;;4822134;29;20050;-83
2022/09/20 03:29:58;;;;;;;1.20;0.60;;;15.40;80.10;;;;;;4820962;29;20088;-84
2022/09/20 03:32:32;;;;;;;0.40;0.40;;;15.30;80.20;;;;;;4821587;29;20058;-82
2022/09/20 03:35:06;;;;;;;0.52;0.52;;;15.30;80.10;;;;;;4820602;29;20056;-82
2022/09/20 03:38:14;;;;;;;0.65;0.40;;;15.30;80.10;;;;;;4805827;29;20048;-81
2022/09/20 03:40:46;;;;;;;1.35;0.40;;;15.30;80.70;;;;;;4820651;29;20047;-83
2022/09/20 03:43:34;;;;;;;1.65;0.55;;;15.30;80.10;;;;;;4787621;29;20130;-83
2022/09/20 03:46:25;;;;;;;0.50;0.50;;;15.30;80.20;;;;;;4790096;29;20263;-86
2022/09/20 03:48:57;;;;;;;0.93;0.55;;;15.30;80.20;;;;;;4776988;29;20051;-88
2022/09/20 03:51:55;;;;;;;0.40;0.40;;;15.30;80.20;;;;;;4789641;29;20042;-87
2022/09/20 03:54:58;;;;;;;0.60;0.60;;;15.30;80.30;;;;;;4813495;29;20043;-92
2022/09/20 03:57:51;;;;;;;0.40;0.40;;;15.30;80.30;;;;;;4810879;29;20034;-94
2022/09/20 04:00:22;;;;;;;0.80;0.50;;;15.30;80.20;;;;;;4823734;29;20045;-92
2022/09/20 04:03:15;;;;;;;0.60;0.30;;;15.40;80.10;;;;;;4846563;29;20103;-89
2022/09/20 04:05:57;;;;;;;0.35;0.35;;;15.40;80.10;;;;;;4908352;29;20039;-94
2022/09/20 04:08:48;;;;;;;0.70;0.40;;;15.40;80.00;;;;;;4922176;29;20035;-91
2022/09/20 04:11:45;;;;;;;0.32;0.30;;;15.40;80.00;;;;;;4926944;29;20047;-91
2022/09/20 04:14:28;;;;;;;0.40;0.40;;;15.40;80.00;;;;;;4886348;29;20031;-87
2022/09/20 04:17:10;;;;;;;0.50;0.40;;;15.40;80.10;;;;;;4919425;28;20534;-87
2022/09/20 04:20:02;;;;;;;0.40;0.40;;;15.40;79.90;;;;;;4945933;28;20043;-86
2022/09/20 04:22:29;;;;;;;1.85;0.60;;;15.40;80.00;;;;;;4950965;28;20399;-83
2022/09/20 04:25:08;;;;;;;0.45;0.45;;;15.40;80.00;;;;;;4959503;28;20082;-81
2022/09/20 04:27:53;;;;;;;1.02;0.50;;;15.40;79.80;;;;;;4923438;29;20162;-83
2022/09/20 04:30:21;;;;;;;0.70;0.60;;;15.50;80.00;;;;;;4931224;29;20027;-88
2022/09/20 04:33:20;;;;;;;0.70;0.60;;;15.50;79.80;;;;;;4899179;29;20124;-89
2022/09/20 04:38:34;;;;;;;0.60;0.50;;;15.50;79.80;;;;;;4937707;28;20042;-77
2022/09/20 04:41:21;;;;;;;0.80;0.60;;;15.50;79.70;;;;;;4937280;29;20032;-77
2022/09/20 04:43:59;;;;;;;2.90;0.60;;;15.50;79.80;;;;;;4932956;29;20118;-79
2022/09/20 04:47:02;;;;;;;0.90;0.65;;;15.50;79.80;;;;;;4945477;29;20735;-78
2022/09/20 04:49:46;;;;;;;0.82;0.50;;;15.50;79.90;;;;;;4915726;29;20036;-79
2022/09/20 04:52:45;;;;;;;1.45;0.90;;;15.50;79.80;;;;;;4933899;29;20043;-79
2022/09/20 04:55:30;;;;;;;1.15;0.93;;;15.50;79.90;;;;;;4967849;28;20039;-89
2022/09/20 04:57:59;;;;;;;0.68;0.60;;;15.50;79.90;;;;;;4939214;28;20042;-90
2022/09/20 05:00:51;;;;;;;0.98;0.75;;;15.50;80.00;;;;;;4947540;28;21730;-88
2022/09/20 05:04:02;;;;;;;2.25;0.77;;;15.50;80.10;;;;;;4932764;28;20039;-89
2022/09/20 05:06:31;;;;;;;1.52;0.95;;;15.50;80.30;;;;;;4947545;28;20484;-91
2022/09/20 05:09:27;;;;;;;0.82;0.68;;;15.50;80.30;;;;;;4963518;28;20529;-90
2022/09/20 05:11:53;;;;;;;3.10;0.90;;;15.50;80.30;;;;;;4960829;28;20046;-90
2022/09/20 05:14:51;;;;;;;1.50;0.88;;;15.60;80.50;;;;;;4930449;28;20050;-91
2022/09/20 05:17:30;;;;;;;1.25;0.80;;;15.50;80.60;;;;;;4980938;28;20039;-90
2022/09/20 05:20:25;;;;;;;1.08;0.60;;;15.50;80.70;;;;;;4963544;28;20593;-91
2022/09/20 05:23:21;;;;;;;0.85;0.85;;;15.50;80.50;;;;;;4930832;28;20038;-89
2022/09/20 05:26:02;;;;;;;1.67;0.82;;;15.60;81.10;;;;;;4934588;28;20042;-89
2022/09/20 05:29:01;;;;;;;1.65;0.90;;;15.60;80.30;;;;;;4949577;28;20125;-89
2022/09/20 05:31:59;;;;;;;0.60;0.60;;;15.60;80.30;;;;;;4948785;28;20031;-89
2022/09/20 05:34:49;;;;;;;1.00;0.90;;;15.60;80.30;;;;;;4965709;28;21253;-86
2022/09/20 05:37:36;;;;;;;1.15;0.93;;;15.70;80.20;;;;;;4935426;28;20030;-87
2022/09/20 05:40:24;;;;;;;2.03;0.85;;;15.70;80.20;;;;;;4938148;28;20395;-85
2022/09/20 05:43:07;;;;;;;3.13;1.00;;;15.70;80.50;;;;;;4932390;28;20022;-85
2022/09/20 05:45:48;;;;;;;1.20;1.10;;;15.70;80.60;;;;;;4947272;28;20046;-84
2022/09/20 05:48:37;;;;;;;0.93;0.77;;;15.70;80.20;;;;;;4954494;28;20038;-87
2022/09/20 05:51:21;;;;;;;1.05;0.82;;;15.70;80.00;;;;;;4950399;28;20039;-86
2022/09/20 05:54:10;;;;;;;1.02;0.93;;;15.80;79.80;;;;;;4962401;28;20035;-84
2022/09/20 05:56:45;;;;;;;0.90;0.68;;;15.80;79.60;;;;;;4961231;28;20030;-86
2022/09/20 05:59:33;;;;;;;0.85;0.80;;;15.70;79.50;;;;;;4961130;28;20109;-84
2022/09/20 06:02:17;;;;;;;1.30;1.20;;;15.70;79.40;;;;;;4936893;28;20031;-84
2022/09/20 06:04:59;;;;;;;1.17;0.88;;;15.70;79.10;;;;;;4978286;28;20030;-81
2022/09/20 06:07:49;;;;;;;1.63;1.10;;;15.70;79.00;;;;;;4933808;28;20502;-83
2022/09/20 06:10:21;;;;;;;0.80;0.80;;;15.60;78.90;;;;;;4960901;28;20061;-81
2022/09/20 06:12:59;;;;;;;1.33;0.80;;;15.60;79.00;;;;;;4944673;28;20522;-79
2022/09/20 06:15:33;;;;;;;1.27;0.70;;;15.60;79.00;;;;;;4961757;28;20873;-83
2022/09/20 06:18:18;;;;;;;0.98;0.80;;;15.60;79.00;;;;;;4960149;28;20041;-84
2022/09/20 06:21:21;;;;;;;2.45;0.90;;;15.60;79.10;;;;;;4978172;28;20038;-81
2022/09/20 06:23:47;;;;;;;1.75;0.80;;;15.70;79.10;;;;;;4963671;28;20557;-81
2022/09/20 06:26:18;;;;;;;1.08;0.93;;;15.70;78.80;;;;;;4961319;28;20067;-82
2022/09/20 06:28:52;;;;;;;0.77;0.70;;;15.70;79.00;;;;;;4977580;28;20034;-83
2022/09/20 06:31:19;;;;;;;0.68;0.65;;;15.70;78.90;;;;;;4944785;28;20038;-81
2022/09/20 06:34:06;;;;;;;2.22;1.17;;;15.70;78.80;;;;;;4960860;28;20041;-81
2022/09/20 06:42:37;;;;;;;2.72;2.40;;;15.70;78.80;;;;;;4962249;28;20499;-81
2022/09/20 06:45:04;;;;;;;2.97;1.85;;;15.70;78.80;;;;;;4960026;28;20529;-81
2022/09/20 06:47:30;;;;;;;3.95;1.70;;;15.70;78.90;;;;;;4928174;28;20454;-82
2022/09/20 06:49:57;;;;;;;1.27;1.17;;;15.80;78.90;;;;;;4943087;28;20030;-81
2022/09/20 06:52:23;;;;;;;1.20;1.10;;;15.90;78.80;;;;;;4958930;28;20038;-82
2022/09/20 06:54:53;;;;;;;1.10;1.00;;;15.90;78.60;;;;;;4978408;28;20177;-82
2022/09/20 06:57:30;;;;;;;1.88;0.90;;;15.90;78.60;;;;;;4943614;28;20042;-83
2022/09/20 06:59:55;;;;;;;1.58;0.85;;;16.00;78.50;;;;;;4932676;28;20035;-81
2022/09/20 07:02:21;;;;;;;0.75;0.70;;;16.00;78.30;;;;;;4976879;28;20045;-81
2022/09/20 07:04:47;;;;;;;1.25;0.80;;;16.00;77.90;;;;;;4977402;28;20053;-80
2022/09/20 07:07:17;;;;;;;0.70;0.70;;;16.00;77.90;;;;;;4942991;28;20077;-80
2022/09/20 07:09:44;;;;;;;1.13;0.60;;;16.10;77.70;;;;;;4959382;28;20569;-82
2022/09/20 07:12:11;;;;;;;1.80;0.98;;;16.00;77.70;;;;;;4959458;28;20056;-82
2022/09/20 07:14:38;;;;;;;1.95;0.82;;;16.10;77.60;;;;;;4943256;28;20424;-83
2022/09/20 07:17:05;;;;;;;0.98;0.90;;;16.10;77.60;;;;;;4943415;28;20035;-81
2022/09/20 07:19:31;;;;;;;0.98;0.85;;;16.10;77.70;;;;;;4944189;28;20497;-81
2022/09/20 07:21:57;;;;;;;0.77;0.68;;;16.10;77.70;;;;;;4960728;28;20069;-82
2022/09/20 07:24:23;;;;;;;2.47;0.95;;;16.10;77.70;;;;;;4943739;28;20044;-83
2022/09/20 07:27:00;;;;;;;1.05;0.80;;;16.10;77.60;;;;;;4959621;28;20031;-82
2022/09/20 07:29:27;;;;;;;1.17;1.00;;;16.10;77.60;;;;;;4959147;28;20048;-82
2022/09/20 07:31:55;;;;;;;1.50;0.85;;;16.10;77.70;;;;;;4958999;28;20469;-82
2022/09/20 07:34:21;;;;;;;1.27;0.88;;;16.10;77.80;;;;;;4959593;28;20435;-82
2022/09/20 07:36:49;;;;;;;1.00;0.90;;;16.20;77.70;;;;;;4944065;28;20030;-81
2022/09/20 07:39:15;;;;;;;1.10;0.93;;;16.20;77.60;;;;;;4935844;28;20050;-84
2022/09/20 07:41:47;;;;;;;2.00;1.00;;;16.20;77.50;;;;;;4959552;28;20438;-82
2022/09/20 07:44:26;;;;;;;0.98;0.90;;;16.20;77.10;;;;;;4961052;28;20097;-80
2022/09/20 07:46:54;;;;;;;1.85;1.05;;;16.20;77.00;;;;;;4964323;28;20035;-83
2022/09/20 07:49:21;;;;;;;1.08;0.82;;;16.20;76.90;;;;;;4919356;28;20069;-81
2022/09/20 07:51:48;;;;;;;1.15;0.98;;;16.20;76.80;;;;;;4941468;28;20066;-82
2022/09/20 07:54:14;;;;;;;1.17;0.90;;;16.20;76.70;;;;;;4942662;28;20042;-80
2022/09/20 07:56:41;;;;;;;2.25;1.00;;;16.20;76.70;;;;;;4976024;28;20030;-84
2022/09/20 07:59:07;;;;;;;1.02;0.90;;;16.20;76.70;;;;;;4942065;28;20038;-83
2022/09/20 08:01:32;;;;;;;1.05;0.90;;;16.20;76.50;;;;;;4976801;28;20424;-81
2022/09/20 08:03:58;;;;;;;0.85;0.75;;;16.20;76.70;;;;;;4943700;28;20039;-80
2022/09/20 08:06:25;;;;;;;0.70;0.70;;;16.20;76.60;;;;;;4956648;28;20101;-82
2022/09/20 08:08:51;;;;;;;0.85;0.73;;;16.20;76.80;;;;;;4948200;28;20166;-83
2022/09/20 08:11:24;;;;;;;0.75;0.75;;;16.30;76.60;;;;;;4939938;28;20043;-81
2022/09/20 08:13:52;;;;;;;1.13;0.80;;;16.20;76.40;;;;;;4960626;28;20039;-84
2022/09/20 08:16:19;;;;;;;0.90;0.90;;;16.30;76.60;;;;;;4965760;28;20041;-84
2022/09/20 08:18:46;;;;;;;1.15;0.80;;;16.30;76.70;;;;;;4947924;29;20059;-84
2022/09/20 08:21:13;;;;;;;0.77;0.70;;;16.30;76.70;;;;;;4954009;28;20067;-83
2022/09/20 08:23:44;;;;;;;0.98;0.77;;;16.30;76.60;;;;;;4954282;28;20038;-82
2022/09/20 08:26:12;;;;;;;0.82;0.80;;;16.30;76.70;;;;;;4936820;28;20485;-83
2022/09/20 08:28:39;;;;;;;1.75;0.77;;;16.30;76.80;;;;;;4915832;28;20032;-82
2022/09/20 08:31:12;;;;;;;2.17;0.90;;;16.30;76.70;;;;;;4953744;28;20534;-81
2022/09/20 08:33:38;;;;;;;1.23;0.80;;;16.30;76.70;;;;;;4963612;28;20038;-83
2022/09/20 08:36:06;;;;;;;1.13;1.02;;;16.30;76.70;;;;;;4947423;28;20098;-81
2022/09/20 08:38:33;;;;;;;0.80;0.80;;;16.30;76.80;;;;;;4944075;28;20035;-81
2022/09/20 08:41:09;;;;;;;1.23;1.02;;;16.40;76.90;;;;;;4965244;28;20032;-81
2022/09/20 08:43:41;;;;;;;1.13;0.80;;;16.40;76.80;;;;;;4940002;28;20054;-83
2022/09/20 08:46:14;;;;;;;1.25;0.80;;;16.40;76.80;;;;;;4952080;28;20118;-83
2022/09/20 08:48:40;;;;;;;1.40;0.75;;;16.40;76.50;;;;;;4964291;28;20031;-83
2022/09/20 08:51:11;;;;;;;2.25;0.95;;;16.40;76.50;;;;;;4925897;28;20043;-83
2022/09/20 08:53:48;;;;;;;1.70;1.15;;;16.40;76.60;;;;;;4933889;28;20040;-83
2022/09/20 08:56:15;;;;;;;2.88;1.05;;;16.40;76.60;;;;;;4938254;29;20035;-83
2022/09/20 08:58:42;;;;;;;2.35;1.00;;;16.40;76.70;;;;;;4935186;28;20043;-84
2022/09/20 09:01:13;;;;;;;1.45;0.80;;;16.50;76.70;;;;;;4925181;28;20037;-82
2022/09/20 09:03:39;;;;;;;1.35;1.10;;;16.50;76.60;;;;;;4946558;28;20039;-82
2022/09/20 09:06:13;;;;;;;1.33;0.95;;;16.50;76.60;;;;;;4959461;28;20065;-82
2022/09/20 09:08:41;;;;;;;1.92;0.73;;;16.60;76.40;;;;;;4943014;28;20453;-83
2022/09/20 09:11:13;;;;;;;1.80;1.20;;;16.50;76.20;;;;;;4941600;28;20094;-81
2022/09/20 09:13:52;;;;;;;1.20;0.80;;;16.60;76.30;;;;;;4929052;28;20043;-81
2022/09/20 09:16:21;;;;;;;2.28;0.70;;;16.60;76.10;;;;;;4964267;28;20155;-82
2022/09/20 09:18:50;;;;;;;0.82;0.73;;;16.60;75.90;;;;;;4942835;28;20038;-82
2022/09/20 09:21:19;;;;;;;1.58;0.90;;;16.60;75.90;;;;;;4958691;28;20047;-83
2022/09/20 09:23:51;;;;;;;1.27;0.80;;;16.60;75.70;;;;;;4926881;28;20039;-82
2022/09/20 09:26:28;;;;;;;1.00;0.60;;;16.60;75.80;;;;;;4942362;28;20039;-84
2022/09/20 09:29:16;;;;;;;1.27;0.73;;;16.60;75.50;;;;;;4943496;28;20043;-84
2022/09/20 09:31:44;;;;;;;2.63;0.93;;;16.60;75.50;;;;;;4941917;28;20134;-83
2022/09/20 09:34:43;;;;;;;1.52;0.95;;;16.60;75.60;;;;;;4948680;28;20027;-84
2022/09/20 09:37:30;;;;;;;1.00;0.90;;;16.60;75.70;;;;;;4945355;28;20051;-82
2022/09/20 09:40:11;;;;;;;1.17;1.00;;;16.60;75.60;;;;;;4931041;28;20109;-84
2022/09/20 09:43:00;;;;;;;1.10;0.80;;;16.60;75.60;;;;;;4944318;28;20042;-81
2022/09/20 09:45:31;;;;;;;1.02;0.93;;;16.60;75.70;;;;;;4945643;28;20037;-82
2022/09/20 09:48:00;;;;;;;2.55;0.80;;;16.70;75.60;;;;;;4959308;28;20051;-81
2022/09/20 09:50:29;;;;;;;1.48;0.93;;;16.70;75.50;;;;;;4942059;28;20043;-81
2022/09/20 09:53:01;;;;;;;1.40;1.02;;;16.70;75.30;;;;;;4917805;28;20071;-82
2022/09/20 09:55:47;;;;;;;1.48;0.68;;;16.70;75.40;;;;;;4926115;28;20055;-81
2022/09/20 09:58:43;;;;;;;1.33;0.70;;;16.70;75.40;;;;;;4939723;28;20031;-83
2022/09/20 10:01:47;;;;;;;3.65;1.08;;;16.70;75.10;;;;;;4942604;28;20043;-83
2022/09/20 10:04:22;;;;;;;2.15;1.10;;;16.70;75.40;;;;;;4928736;28;20043;-81
2022/09/20 10:07:12;;;;;;;1.58;1.00;;;16.70;75.30;;;;;;4959762;28;20054;-82
2022/09/20 10:10:03;;;;;;;1.95;1.02;;;16.70;75.40;;;;;;4913093;28;20030;-82
2022/09/20 10:12:57;;;;;;;0.82;0.80;;;16.70;75.40;;;;;;4956498;28;20098;-82
2022/09/20 10:15:32;;;;;;;1.13;0.80;;;16.70;75.30;;;;;;4947544;28;20039;-82
2022/09/20 10:18:07;;;;;;;1.35;1.17;;;16.70;75.20;;;;;;4918724;28;20039;-82
2022/09/20 10:20:45;;;;;;;0.95;0.85;;;16.70;75.00;;;;;;4940834;28;20114;-82
2022/09/20 10:23:40;;;;;;;2.17;0.90;;;16.70;74.90;;;;;;4941801;28;20031;-82
2022/09/20 10:26:38;;;;;;;2.75;0.90;;;16.70;75.00;;;;;;4917453;29;20042;-83
2022/09/20 10:29:26;;;;;;;0.70;0.70;;;16.70;74.90;;;;;;4900726;29;20619;-81
2022/09/20 10:32:13;;;;;;;0.90;0.90;;;16.70;74.80;;;;;;4903332;29;20653;-82
2022/09/20 10:34:52;;;;;;;0.75;0.70;;;16.70;74.70;;;;;;4903630;29;20032;-82
2022/09/20 10:37:36;;;;;;;2.00;0.70;;;16.70;74.80;;;;;;4901707;29;20207;-82
2022/09/20 10:40:14;;;;;;;1.27;1.17;;;16.70;74.90;;;;;;4890948;29;20680;-82
2022/09/20 10:43:16;;;;;;;1.10;0.82;;;16.70;74.80;;;;;;4917715;29;20665;-82
2022/09/20 10:46:10;;;;;;;0.50;0.50;;;16.70;74.80;;;;;;4917657;29;20056;-81
2022/09/20 10:48:47;;;;;;;1.23;0.70;;;16.70;74.90;;;;;;4901530;29;20056;-81
2022/09/20 10:51:31;;;;;;;0.63;0.63;;;16.70;74.80;;;;;;4871968;29;20071;-81
2022/09/20 10:54:46;;;;;;;0.70;0.70;;;16.70;75.10;;;;;;4883646;29;20048;-82
2022/09/20 10:57:57;;;;;;;2.05;0.60;;;16.70;75.80;;;;;;4916923;29;20054;-81
2022/09/20 11:00:41;;;;;;;0.55;0.55;;;16.70;75.30;;;;;;4864933;29;20473;-81
2022/09/20 11:03:21;;;;;;;1.10;0.60;;;16.70;75.00;;;;;;4850740;29;20047;-81
2022/09/20 11:06:12;;;;;;;0.63;0.60;;;16.80;75.00;;;;;;4845252;29;20088;-81
2022/09/20 11:08:41;;;;;;;1.90;0.77;;;16.80;75.10;;;;;;4891790;29;20088;-82
2022/09/20 11:11:17;;;;;;;0.70;0.70;;;16.80;75.00;;;;;;4891105;29;20056;-82
2022/09/20 11:13:50;;;;;;;0.70;0.70;;;16.80;74.70;;;;;;4875292;29;20189;-82
2022/09/20 11:16:25;;;;;;;0.73;0.73;;;16.80;74.60;;;;;;4899287;29;20025;-83
2022/09/20 11:19:15;;;;;;;0.85;0.70;;;16.90;74.40;;;;;;4855600;29;20456;-83
2022/09/20 11:21:51;;;;;;;1.45;1.00;;;16.80;74.30;;;;;;4882224;29;20039;-84
2022/09/20 11:24:17;;;;;;;0.77;0.60;;;16.90;75.00;;;;;;4871031;29;20139;-83
2022/09/20 11:27:07;;;;;;;0.60;0.60;;;16.80;74.20;;;;;;4897964;29;20165;-83
2022/09/20 11:29:35;;;;;;;0.60;0.60;;;16.80;74.40;;;;;;4875498;29;20040;-87
2022/09/20 11:32:16;;;;;;;0.80;0.80;;;16.80;74.10;;;;;;4857619;29;20535;-85
2022/09/20 11:34:55;;;;;;;0.90;0.80;;;16.80;74.00;;;;;;4862950;29;20518;-85
2022/09/20 11:37:29;;;;;;;1.05;0.70;;;16.90;74.10;;;;;;4930340;28;20047;-85
2022/09/20 11:39:59;;;;;;;1.30;0.98;;;16.90;74.00;;;;;;4940178;28;20055;-86
2022/09/20 11:42:30;;;;;;;2.25;1.27;;;16.90;74.20;;;;;;4959247;28;20447;-84
2022/09/20 11:44:56;;;;;;;0.90;0.90;;;16.90;74.10;;;;;;4967295;28;20533;-89
2022/09/20 11:47:25;;;;;;;0.85;0.85;;;16.80;74.30;;;;;;4951767;28;20039;-88
2022/09/20 11:50:09;;;;;;;1.27;1.10;;;16.80;74.50;;;;;;4958819;28;20112;-89
2022/09/20 11:52:41;;;;;;;0.80;0.80;;;16.80;74.40;;;;;;4961723;28;20122;-84
2022/09/20 11:55:18;;;;;;;2.25;1.23;;;16.90;74.40;;;;;;4955620;28;20035;-86
2022/09/20 11:57:45;;;;;;;1.70;1.10;;;16.90;74.40;;;;;;4968253;28;20031;-87
2022/09/20 12:00:12;;;;;;;1.70;1.13;;;16.90;74.40;;;;;;4973260;28;20049;-87
2022/09/20 12:02:50;;;;;;;1.67;1.23;;;16.90;74.60;;;;;;4961864;28;20034;-86
2022/09/20 12:05:55;;;;;;;1.73;1.00;;;16.90;74.50;;;;;;4956067;28;20035;-85
2022/09/20 12:08:34;;;;;;;2.38;0.90;;;16.90;74.40;;;;;;4924584;29;20076;-87
2022/09/20 12:11:07;;;;;;;1.35;1.10;;;16.90;74.20;;;;;;4908380;29;20050;-88
2022/09/20 12:13:37;;;;;;;1.00;0.90;;;17.00;74.30;;;;;;4912355;29;20032;-86
2022/09/20 12:16:08;;;;;;;2.33;1.20;;;17.00;73.90;;;;;;4901983;29;20071;-87
2022/09/20 12:18:34;;;;;;;1.08;0.80;;;16.90;74.00;;;;;;4943786;29;20035;-84
2022/09/20 12:21:04;;;;;;;1.15;0.80;;;17.00;74.20;;;;;;4906442;29;20049;-86
2022/09/20 12:23:40;;;;;;;0.80;0.80;;;17.00;74.00;;;;;;4941078;29;20134;-84
2022/09/20 12:26:20;;;;;;;1.00;0.80;;;17.00;73.80;;;;;;4892877;29;20088;-87
2022/09/20 12:28:49;;;;;;;1.23;1.00;;;17.00;74.10;;;;;;4915450;29;20050;-87
2022/09/20 12:31:21;;;;;;;0.82;0.82;;;17.00;74.10;;;;;;4926963;29;20114;-86
2022/09/20 12:34:10;;;;;;;1.45;0.80;;;17.00;74.30;;;;;;4916130;29;20048;-85
2022/09/20 12:36:43;;;;;;;2.45;0.88;;;17.00;74.30;;;;;;4905860;29;20036;-87
2022/09/20 12:39:12;;;;;;;1.83;1.08;;;17.00;74.00;;;;;;4920441;29;20028;-85
2022/09/20 12:41:54;;;;;;;2.55;1.02;;;17.00;74.10;;;;;;4910021;29;20040;-87
2022/09/20 12:44:40;;;;;;;1.10;1.00;;;17.00;74.10;;;;;;4931028;28;20053;-87
2022/09/20 12:47:07;;;;;;;;;;;17.00;74.00;;;;;;4948932;28;20034;-82
2022/09/20 12:52:55;;;;;;;0.90;0.80;;;17.00;74.00;;;;;;4947232;28;20030;-89
2022/09/20 12:55:48;;;;;;;1.10;1.00;;;17.00;73.90;;;;;;4950356;28;20029;-84
2022/09/20 12:58:14;;;;;;;2.85;1.13;;;17.10;73.80;;;;;;4967811;28;20520;-85
2022/09/20 13:00:43;;;;;;;1.80;1.10;;;17.10;73.70;;;;;;4980501;28;20035;-84
2022/09/20 13:03:10;;;;;;;1.80;1.10;;;17.00;73.60;;;;;;4979817;28;20045;-86
2022/09/20 13:05:41;;;;;;;1.65;1.15;;;17.00;73.70;;;;;;4961257;28;20039;-84
2022/09/20 13:09:06;;;;;;;1.10;1.10;;;17.00;73.70;;;;;;4962595;28;20426;-84
2022/09/20 13:11:44;;;;;;;3.58;1.30;;;17.00;73.60;;;;;;4885085;29;20040;-84
2022/09/20 13:14:15;;;;;;;1.40;1.20;;;17.00;73.40;;;;;;4884990;29;20036;-84
2022/09/20 13:16:50;;;;;;;1.40;1.30;;;17.00;73.60;;;;;;4869944;29;20055;-85
2022/09/20 13:19:37;;;;;;;1.95;1.35;;;17.00;73.40;;;;;;4876008;29;20033;-85
2022/09/20 13:22:33;;;;;;;1.80;1.30;;;17.00;73.50;;;;;;4884899;29;20556;-85
2022/09/20 13:25:01;;;;;;;1.63;1.25;;;17.00;73.60;;;;;;4865350;29;20064;-84
2022/09/20 13:27:53;;;;;;;1.42;1.15;;;17.00;73.40;;;;;;4898801;29;20485;-86
2022/09/20 13:30:23;;;;;;;1.58;0.98;;;17.10;73.50;;;;;;4868400;29;20037;-84
2022/09/20 13:32:50;;;;;;;4.30;1.15;;;17.10;73.30;;;;;;4887493;29;20468;-85
2022/09/20 13:35:20;;;;;;;1.23;1.13;;;17.00;73.10;;;;;;4884279;29;20385;-85
2022/09/20 13:37:55;;;;;;;2.88;1.10;;;17.00;73.10;;;;;;4900677;29;20044;-84
2022/09/20 13:40:32;;;;;;;1.73;1.15;;;17.00;73.10;;;;;;4897257;29;20039;-84
2022/09/20 13:43:01;;;;;;;1.52;1.23;;;17.00;73.10;;;;;;4873900;29;20033;-85
2022/09/20 13:45:27;;;;;;;1.40;1.00;;;17.00;73.10;;;;;;4948339;28;20049;-84
2022/09/20 13:47:56;;;;;;;1.67;1.35;;;17.00;73.10;;;;;;4961906;28;20522;-84
2022/09/20 13:50:30;;;;;;;1.23;1.10;;;17.00;72.80;;;;;;4952064;28;20130;-86
2022/09/20 13:53:01;;;;;;;2.55;1.10;;;16.90;72.90;;;;;;4962523;28;20045;-86
2022/09/20 13:55:37;;;;;;;2.65;1.20;;;16.90;72.80;;;;;;4961957;28;20026;-84
2022/09/20 13:58:27;;;;;;;1.63;1.20;;;16.90;72.80;;;;;;4979775;28;20035;-84